»·PEaware :: N3021C KRAL-KVCV

N3021C :: KRAL-KVCV

FLIGHT INFORMATION

Flight Status: Arrived
Operator: Privately registered:
United States
More flights under this callsign
Pilot: Mark B. (9455)
Aircraft: CESSNA 172 SKYHAWK
(C172)
More flights by this aircraft type
Origin: KRAL Riverside Mun
United States
Destination: KVCV Socal Logistics
United States
More flights between these airports :: More routes between these airports
Route: +PDZ V442 APLES
File this flight plan on PilotEdge
Remarks: RAVON V8 ARRAN HITOP
Altitude:
(Current/Filed)
9,000ft
Speed:
(Current/Filed)
115kts
Departed: 27-Aug-16 07:42 PM
Arrived: 27-Aug-16 08:40 PM
Distance/Time
Traveled:
40nm/0:58
Distance/Time
To Go:
Arrived

Flight Plot

Page will automatically refresh every two minutes.


Map Options




Map Legend


Flown Route
Filed Route
Departure Airport
Arrival Airport
Navaid (VOR, NDB)
Fix

Horizontal Profiles

Position Reports

Time Latitude Longitude Heading Altitude Ground
Speed
27-Aug-16 19:12 33.951043 -117.446153 104 771ft 0kts
27-Aug-16 19:13 33.951043 -117.446153 104 771ft 0kts
27-Aug-16 19:14 33.951043 -117.446153 104 771ft 0kts
27-Aug-16 19:15 33.951043 -117.446153 104 771ft 0kts
27-Aug-16 19:16 33.951043 -117.446153 104 771ft 0kts
27-Aug-16 19:17 33.951043 -117.446153 104 771ft 0kts
27-Aug-16 19:18 33.951043 -117.446153 104 771ft 0kts
27-Aug-16 19:19 33.951043 -117.446153 104 771ft 0kts
27-Aug-16 19:20 33.951043 -117.446153 104 771ft 0kts
27-Aug-16 19:21 33.951043 -117.446153 104 771ft 0kts
27-Aug-16 19:22 33.951043 -117.446153 104 771ft 0kts
27-Aug-16 19:23 33.951043 -117.446153 104 771ft 0kts
27-Aug-16 19:24 33.951043 -117.446153 104 771ft 0kts
27-Aug-16 19:25 33.951043 -117.446153 104 771ft 0kts
27-Aug-16 19:26 33.951043 -117.446153 104 771ft 0kts
27-Aug-16 19:27 33.951043 -117.446153 104 771ft 0kts
27-Aug-16 19:28 33.951043 -117.446153 104 771ft 0kts
27-Aug-16 19:29 33.951043 -117.446153 104 771ft 0kts
27-Aug-16 19:30 33.951043 -117.446153 104 771ft 0kts
27-Aug-16 19:31 33.951043 -117.446153 104 771ft 0kts
27-Aug-16 19:32 33.951043 -117.446153 104 771ft 0kts
27-Aug-16 19:33 33.951043 -117.446153 104 771ft 0kts
27-Aug-16 19:34 33.951396 -117.443686 48 783ft 11kts
27-Aug-16 19:35 33.950851 -117.440106 101 799ft 15kts
27-Aug-16 19:36 33.949933 -117.435376 105 814ft 14kts
27-Aug-16 19:37 33.949894 -117.435102 71 814ft 0kts
27-Aug-16 19:38 33.949894 -117.435102 71 814ft 0kts
27-Aug-16 19:39 33.949934 -117.435007 57 814ft 8kts
27-Aug-16 19:40 33.952715 -117.444810 286 973ft 86kts
27-Aug-16 19:41 33.957160 -117.469799 288 1796ft 91kts
27-Aug-16 19:42 33.953002 -117.492769 214 2725ft 85kts
27-Aug-16 19:43 33.933656 -117.505529 218 3542ft 91kts
27-Aug-16 19:44 33.944852 -117.512646 23 4212ft 94kts
27-Aug-16 19:45 33.964613 -117.503862 15 4956ft 91kts
27-Aug-16 19:46 33.983429 -117.492438 22 5636ft 92kts
27-Aug-16 19:47 34.002398 -117.480517 26 6266ft 96kts
27-Aug-16 19:48 34.021448 -117.468235 23 6889ft 97kts
27-Aug-16 19:49 34.040657 -117.457294 33 7479ft 97kts
27-Aug-16 19:50 34.059472 -117.443247 27 8051ft 97kts
27-Aug-16 19:51 34.079525 -117.431376 21 8595ft 98kts
27-Aug-16 19:52 34.099861 -117.419952 28 8997ft 99kts
27-Aug-16 19:53 34.121156 -117.406897 25 9055ft 113kts
27-Aug-16 19:54 34.140867 -117.395979 24 9025ft 119kts
27-Aug-16 19:55 34.168414 -117.378009 32 8997ft 118kts
27-Aug-16 19:56 34.188179 -117.365456 24 8976ft 117kts
27-Aug-16 19:57 34.212367 -117.352109 22 8969ft 117kts
27-Aug-16 19:58 34.240136 -117.335943 39 8956ft 116kts
27-Aug-16 19:59 34.258778 -117.322127 26 8998ft 114kts
27-Aug-16 20:00 34.281864 -117.308417 25 9058ft 114kts
27-Aug-16 20:01 34.304756 -117.292939 26 9058ft 116kts
27-Aug-16 20:02 34.328478 -117.278954 22 9053ft 116kts
27-Aug-16 20:03 34.352494 -117.265139 29 9017ft 118kts
27-Aug-16 20:04 34.376169 -117.250514 26 9028ft 116kts
27-Aug-16 20:05 34.400093 -117.237034 23 9051ft 115kts
27-Aug-16 20:06 34.424409 -117.224279 26 9049ft 116kts
27-Aug-16 20:07 34.449484 -117.211621 359 8891ft 124kts
27-Aug-16 20:08 34.477746 -117.217047 350 8593ft 127kts
27-Aug-16 20:09 34.506755 -117.221907 353 8197ft 129kts
27-Aug-16 20:10 34.535342 -117.226294 351 8006ft 120kts
27-Aug-16 20:11 34.561430 -117.230083 353 7991ft 117kts
27-Aug-16 20:12 34.587944 -117.233567 350 7995ft 116kts
27-Aug-16 20:13 34.614121 -117.238942 353 7989ft 116kts
27-Aug-16 20:14 34.640353 -117.242354 354 8027ft 114kts
27-Aug-16 20:15 34.666369 -117.246643 348 8043ft 115kts
27-Aug-16 20:16 34.668688 -117.247211 348 8051ft 115kts
27-Aug-16 20:17 34.683650 -117.250252 349 8066ft 114kts
27-Aug-16 20:18 34.709693 -117.256265 350 8067ft 115kts
27-Aug-16 20:19 34.736057 -117.260011 349 8029ft 118kts
27-Aug-16 20:20 34.762683 -117.263352 347 8034ft 116kts
27-Aug-16 20:21 34.788971 -117.269542 348 8028ft 117kts
27-Aug-16 20:22 34.815278 -117.275911 347 8035ft 117kts
27-Aug-16 20:23 34.841646 -117.281378 349 8033ft 117kts
27-Aug-16 20:24 34.870007 -117.285902 353 7720ft 127kts
27-Aug-16 20:25 34.885956 -117.309581 246 7254ft 132kts
27-Aug-16 20:26 34.863000 -117.336870 221 6503ft 137kts
27-Aug-16 20:27 34.835940 -117.361071 209 5514ft 141kts
27-Aug-16 20:28 34.808347 -117.381157 213 4706ft 132kts
27-Aug-16 20:29 34.784438 -117.394072 188 4443ft 91kts
27-Aug-16 20:30 34.761410 -117.392048 168 4428ft 93kts
27-Aug-16 20:31 34.738224 -117.389471 172 4404ft 94kts
27-Aug-16 20:32 34.715437 -117.387383 179 4416ft 94kts
27-Aug-16 20:33 34.694530 -117.387653 179 4267ft 93kts
27-Aug-16 20:34 34.673198 -117.387384 183 3820ft 94kts
27-Aug-16 20:35 34.652202 -117.387652 177 3527ft 68kts
27-Aug-16 20:36 34.635799 -117.386954 171 3253ft 67kts
27-Aug-16 20:37 34.619039 -117.386719 179 2826ft 56kts
27-Aug-16 20:38 34.611842 -117.386683 178 2825ft 16kts

Navigation Log

Ident Type
Flight plan parsing failed, navigation log unavailable